createdAt,value
2019-06-08T00:00:13.237Z,85.23
2019-06-08T00:02:42.738Z,85.15
2019-06-08T00:05:12.562Z,85.03
2019-06-08T00:07:41.228Z,85.00
2019-06-08T00:10:10.137Z,85.05
2019-06-08T00:12:38.675Z,85.17
2019-06-08T00:15:09.264Z,85.11
2019-06-08T00:17:39.108Z,85.11
2019-06-08T00:20:08.274Z,85.31
2019-06-08T00:22:36.894Z,85.40
2019-06-08T00:25:06.437Z,85.56
2019-06-08T00:27:35.209Z,85.76
2019-06-08T00:30:08.675Z,85.81
2019-06-08T00:32:37.280Z,85.86
2019-06-08T00:35:07.323Z,85.92
2019-06-08T00:37:35.934Z,85.99
2019-06-08T00:40:06.740Z,85.94
2019-06-08T00:42:35.389Z,86.05
2019-06-08T00:45:06.140Z,86.16
2019-06-08T00:47:47.025Z,86.16
2019-06-08T00:50:07.734Z,86.13
2019-06-08T00:52:36.342Z,86.12
2019-06-08T00:55:06.255Z,86.10
2019-06-08T00:57:35.167Z,85.90
2019-06-08T01:00:10.730Z,85.72
2019-06-08T01:02:38.444Z,85.58
2019-06-08T01:05:08.128Z,85.62
2019-06-08T01:07:38.197Z,85.75
2019-06-08T01:10:07.918Z,85.95
2019-06-08T01:12:36.837Z,86.05
2019-06-08T01:15:07.288Z,86.26
2019-06-08T01:17:35.937Z,86.36
2019-06-08T01:20:07.500Z,86.45
2019-06-08T01:22:36.108Z,86.62
2019-06-08T01:25:05.852Z,86.90
2019-06-08T01:27:34.396Z,87.10
2019-06-08T01:30:04.104Z,87.08
2019-06-08T01:32:32.819Z,87.11
2019-06-08T01:35:01.468Z,87.10
2019-06-08T01:37:31.229Z,87.02
2019-06-08T01:39:59.969Z,87.04
2019-06-08T01:42:29.743Z,87.11
2019-06-08T01:44:58.650Z,87.14
2019-06-08T01:47:28.279Z,87.15
2019-06-08T01:49:57.161Z,87.10
2019-06-08T01:52:26.606Z,87.17
2019-06-08T01:54:55.461Z,87.12
2019-06-08T01:57:25.196Z,87.04
2019-06-08T01:59:54.065Z,86.92
2019-06-08T02:02:23.815Z,86.79
2019-06-08T02:04:52.668Z,86.76
2019-06-08T02:07:21.319Z,86.75
2019-06-08T02:09:49.913Z,86.71
2019-06-08T02:12:18.459Z,86.74
2019-06-08T02:14:47.088Z,86.76
2019-06-08T02:17:15.904Z,86.78
2019-06-08T02:19:44.395Z,86.78
2019-06-08T02:22:13.053Z,86.85
2019-06-08T02:24:41.900Z,86.91
2019-06-08T02:27:10.663Z,86.89
2019-06-08T02:29:39.959Z,86.90
2019-06-08T02:32:08.811Z,86.93
2019-06-08T02:34:38.220Z,86.95
2019-06-08T02:37:07.197Z,87.12
2019-06-08T02:39:37.838Z,87.13
2019-06-08T02:42:06.539Z,87.26
2019-06-08T02:44:36.375Z,87.66
2019-06-08T02:47:05.505Z,87.86
2019-06-08T02:49:35.393Z,87.94
2019-06-08T02:52:04.558Z,88.22
2019-06-08T02:54:35.429Z,88.22
2019-06-08T02:57:07.219Z,88.13
2019-06-08T02:59:40.387Z,88.06
2019-06-08T03:02:08.709Z,88.00
2019-06-08T03:04:41.082Z,87.89
2019-06-08T03:07:10.964Z,87.78
2019-06-08T03:09:41.037Z,87.75
2019-06-08T03:12:09.873Z,87.59
2019-06-08T03:14:41.863Z,87.46
2019-06-08T03:17:10.187Z,87.41
2019-06-08T03:19:39.965Z,87.47
2019-06-08T03:22:11.031Z,87.48
2019-06-08T03:24:39.133Z,87.50
2019-06-08T03:27:07.606Z,87.59
2019-06-08T03:29:37.171Z,87.65
2019-06-08T03:32:06.677Z,87.60
2019-06-08T03:34:39.726Z,87.51
2019-06-08T03:37:06.435Z,87.54
2019-06-08T03:39:36.907Z,87.66
2019-06-08T03:42:05.810Z,87.64
2019-06-08T03:44:34.323Z,87.65
2019-06-08T03:47:02.887Z,87.60
2019-06-08T03:49:44.874Z,87.51
2019-06-08T03:52:02.084Z,87.45
2019-06-08T03:54:30.691Z,87.44
2019-06-08T03:56:59.272Z,87.52
2019-06-08T03:59:27.894Z,87.44
2019-06-08T04:01:56.478Z,87.59
2019-06-08T04:04:25.215Z,87.62
2019-06-08T04:06:53.845Z,87.59
2019-06-08T04:09:25.050Z,87.58
2019-06-08T04:11:55.198Z,87.57
2019-06-08T04:14:23.700Z,87.50
2019-06-08T04:16:52.403Z,87.47
2019-06-08T04:19:20.946Z,87.46
2019-06-08T04:21:50.681Z,87.51
2019-06-08T04:24:19.578Z,87.45
2019-06-08T04:26:48.187Z,87.42
2019-06-08T04:29:16.834Z,87.35
2019-06-08T04:31:46.015Z,87.33
2019-06-08T04:34:14.972Z,87.39
2019-06-08T04:36:45.860Z,87.35
2019-06-08T04:39:14.336Z,87.37
2019-06-08T04:41:45.005Z,87.33
2019-06-08T04:44:14.539Z,87.30
2019-06-08T04:46:45.046Z,87.26
2019-06-08T04:49:13.521Z,87.27
2019-06-08T04:51:42.501Z,87.27
2019-06-08T04:54:14.551Z,87.26
2019-06-08T04:56:42.803Z,87.23
2019-06-08T04:59:11.662Z,87.15
2019-06-08T05:01:40.902Z,87.27
2019-06-08T05:04:09.854Z,87.34
2019-06-08T05:06:39.069Z,87.40
2019-06-08T05:09:08.601Z,87.47
2019-06-08T05:11:37.084Z,87.44
2019-06-08T05:14:06.015Z,87.48
2019-06-08T05:16:34.613Z,87.56
2019-06-08T05:19:03.258Z,87.55
2019-06-08T05:21:32.192Z,87.42
2019-06-08T05:24:00.659Z,87.38
2019-06-08T05:26:29.207Z,87.26
2019-06-08T05:28:57.885Z,87.56
2019-06-08T05:31:27.500Z,87.54
2019-06-08T05:33:56.031Z,87.43
2019-06-08T05:36:24.574Z,87.48
2019-06-08T05:38:53.169Z,87.50
2019-06-08T05:41:24.096Z,87.52
2019-06-08T05:43:52.047Z,87.22
2019-06-08T05:46:20.579Z,87.09
2019-06-08T05:48:50.337Z,86.90
2019-06-08T05:51:19.280Z,86.80
2019-06-08T05:53:48.191Z,86.66
2019-06-08T05:56:16.769Z,86.51
2019-06-08T05:58:45.990Z,86.51
2019-06-08T06:01:14.693Z,86.41
2019-06-08T06:03:44.564Z,86.25
2019-06-08T06:06:13.428Z,86.08
2019-06-08T06:08:42.499Z,85.81
2019-06-08T06:11:11.408Z,85.55
2019-06-08T06:13:40.601Z,85.32
2019-06-08T06:16:09.363Z,85.01
2019-06-08T06:18:38.166Z,84.70
2019-06-08T06:21:11.132Z,84.28
2019-06-08T06:23:37.072Z,83.89
2019-06-08T06:26:05.897Z,83.33
2019-06-08T06:28:34.439Z,82.75
2019-06-08T06:31:03.059Z,82.03
2019-06-08T06:33:31.613Z,81.37
2019-06-08T06:36:00.163Z,80.80
2019-06-08T06:38:28.781Z,79.98
2019-06-08T06:40:57.348Z,79.15
2019-06-08T06:43:25.926Z,78.29
2019-06-08T06:45:54.506Z,77.64
2019-06-08T06:48:23.746Z,76.82
2019-06-08T06:50:52.864Z,76.33
2019-06-08T06:53:21.507Z,75.47
2019-06-08T06:55:51.026Z,75.01
2019-06-08T06:58:20.079Z,74.43
2019-06-08T07:00:49.457Z,73.48
2019-06-08T07:03:18.326Z,72.45
2019-06-08T07:05:47.853Z,71.90
2019-06-08T07:08:16.658Z,70.92
2019-06-08T07:10:46.324Z,70.59
2019-06-08T07:13:15.326Z,69.86
2019-06-08T07:15:44.848Z,68.93
2019-06-08T07:18:13.818Z,68.25
2019-06-08T07:20:43.020Z,67.92
2019-06-08T07:23:11.552Z,67.48
2019-06-08T07:25:40.106Z,66.88
2019-06-08T07:28:08.860Z,66.03
2019-06-08T07:30:37.517Z,65.41
2019-06-08T07:33:06.073Z,63.61
2019-06-08T07:35:34.697Z,63.85
2019-06-08T07:38:03.269Z,63.51
2019-06-08T07:40:31.906Z,62.76
2019-06-08T07:43:00.562Z,62.23
2019-06-08T07:45:29.165Z,61.81
2019-06-08T07:48:00.489Z,61.47
2019-06-08T07:50:29.569Z,60.67
2019-06-08T07:52:58.842Z,59.53
2019-06-08T07:55:27.773Z,59.62
2019-06-08T07:57:56.390Z,59.24
2019-06-08T08:00:25.030Z,58.76
2019-06-08T08:02:54.350Z,58.46
2019-06-08T08:05:23.131Z,57.56
2019-06-08T08:07:52.534Z,56.30
2019-06-08T08:10:21.478Z,55.69
2019-06-08T08:12:50.908Z,55.39
2019-06-08T08:15:20.038Z,54.44
2019-06-08T08:17:49.075Z,53.47
2019-06-08T08:20:18.324Z,52.82
2019-06-08T08:22:49.197Z,52.07
2019-06-08T08:25:18.247Z,51.66
2019-06-08T08:27:47.962Z,51.70
2019-06-08T08:30:20.254Z,51.30
2019-06-08T08:32:50.916Z,51.10
2019-06-08T08:35:20.035Z,50.91
2019-06-08T08:37:53.118Z,50.96
2019-06-08T08:40:18.988Z,50.79
2019-06-08T08:42:48.263Z,50.36
2019-06-08T08:45:18.423Z,50.46
2019-06-08T08:47:48.493Z,50.34
2019-06-08T08:50:19.062Z,49.52
2019-06-08T08:52:47.929Z,49.15
2019-06-08T08:55:20.242Z,49.28
2019-06-08T08:57:48.593Z,49.32
2019-06-08T09:00:20.110Z,48.48
2019-06-08T09:02:52.969Z,47.56
2019-06-08T09:05:19.151Z,46.60
2019-06-08T09:07:48.412Z,47.11
2019-06-08T09:10:18.364Z,46.64
2019-06-08T09:12:48.524Z,46.85
2019-06-08T09:15:19.221Z,46.36
2019-06-08T09:17:48.380Z,46.51
2019-06-08T09:20:19.188Z,46.72
2019-06-08T09:22:56.766Z,47.55
2019-06-08T09:25:18.451Z,48.71
2019-06-08T09:27:48.258Z,48.60
2019-06-08T09:30:18.331Z,49.35
2019-06-08T09:32:47.856Z,49.56
2019-06-08T09:35:18.635Z,49.73
2019-06-08T09:37:48.603Z,51.06
2019-06-08T09:40:17.625Z,51.18
2019-06-08T09:42:46.270Z,53.11
2019-06-08T09:45:18.157Z,53.85
2019-06-08T09:47:47.837Z,54.33
2019-06-08T09:50:18.675Z,54.78
2019-06-08T09:52:47.984Z,55.31
2019-06-08T09:55:18.090Z,55.73
2019-06-08T09:57:48.509Z,55.99
2019-06-08T10:00:21.245Z,55.21
2019-06-08T10:02:47.974Z,55.22
2019-06-08T10:05:18.554Z,55.97
2019-06-08T10:07:48.679Z,57.49
2019-06-08T10:10:18.210Z,58.67
2019-06-08T10:12:48.436Z,58.05
2019-06-08T10:15:18.362Z,58.67
2019-06-08T10:17:47.616Z,60.51
2019-06-08T10:20:18.336Z,61.86
2019-06-08T10:22:50.081Z,63.00
2019-06-08T10:25:17.809Z,62.53
2019-06-08T10:27:46.413Z,61.79
2019-06-08T10:30:15.449Z,60.57
2019-06-08T10:32:44.068Z,60.94
2019-06-08T10:35:14.735Z,60.79
2019-06-08T10:37:43.351Z,60.95
2019-06-08T10:40:12.792Z,61.63
2019-06-08T10:42:41.440Z,60.34
2019-06-08T10:45:14.594Z,58.98
2019-06-08T10:47:41.096Z,57.83
2019-06-08T10:50:15.398Z,56.57
2019-06-08T10:52:43.043Z,56.24
2019-06-08T10:55:13.150Z,55.37
2019-06-08T10:57:41.700Z,54.37
2019-06-08T11:00:20.196Z,53.49
2019-06-08T11:02:42.453Z,53.68
2019-06-08T11:05:13.978Z,52.09
2019-06-08T11:07:41.643Z,52.39
2019-06-08T11:10:12.551Z,51.83
2019-06-08T11:12:41.398Z,51.80
2019-06-08T11:15:11.880Z,51.32
2019-06-08T11:17:40.629Z,52.67
2019-06-08T11:20:11.862Z,52.60
2019-06-08T11:22:40.537Z,53.10
2019-06-08T11:25:15.465Z,53.05
2019-06-08T11:27:39.611Z,53.29
2019-06-08T11:30:14.280Z,53.34
2019-06-08T11:32:38.981Z,53.25
2019-06-08T11:35:12.391Z,52.99
2019-06-08T11:37:40.904Z,53.09
2019-06-08T11:40:12.384Z,52.19
2019-06-08T11:42:40.617Z,52.69
2019-06-08T11:45:12.577Z,52.51
2019-06-08T11:47:40.595Z,52.64
2019-06-08T11:50:13.275Z,52.93
2019-06-08T11:52:41.330Z,52.19
2019-06-08T11:55:13.165Z,52.32
2019-06-08T11:57:44.447Z,52.26
2019-06-08T12:00:25.213Z,52.68
2019-06-08T12:02:48.509Z,52.98
2019-06-08T12:05:18.069Z,52.58
2019-06-08T12:07:48.062Z,51.84
2019-06-08T12:10:17.809Z,51.50
2019-06-08T12:12:46.568Z,51.95
2019-06-08T12:15:20.800Z,51.86
2019-06-08T12:17:45.442Z,52.44
2019-06-08T12:20:17.564Z,52.01
2019-06-08T12:22:44.345Z,52.47
2019-06-08T12:25:14.195Z,51.93
2019-06-08T12:27:42.964Z,52.11
2019-06-08T12:30:21.642Z,52.88
2019-06-08T12:32:41.902Z,52.28
2019-06-08T12:35:11.288Z,51.76
2019-06-08T12:37:41.155Z,52.64
2019-06-08T12:40:13.175Z,52.32
2019-06-08T12:42:40.376Z,52.55
2019-06-08T12:45:09.420Z,52.94
2019-06-08T12:47:38.342Z,52.79
2019-06-08T12:50:08.916Z,53.96
2019-06-08T12:52:43.008Z,54.32
2019-06-08T12:55:14.227Z,53.78
2019-06-08T12:57:40.735Z,52.93
2019-06-08T13:00:11.266Z,53.98
2019-06-08T13:02:40.158Z,53.25
2019-06-08T13:05:12.531Z,52.86
2019-06-08T13:07:39.232Z,53.64
2019-06-08T13:10:08.889Z,55.22
2019-06-08T13:12:40.642Z,53.56
2019-06-08T13:15:10.051Z,54.22
2019-06-08T13:17:39.259Z,52.93
2019-06-08T13:20:10.821Z,53.74
2019-06-08T13:22:39.565Z,49.98
2019-06-08T13:25:19.199Z,50.27
2019-06-08T13:27:38.440Z,50.28
2019-06-08T13:30:07.759Z,51.34
2019-06-08T13:32:38.275Z,51.39
2019-06-08T13:35:08.287Z,50.99
2019-06-08T13:37:39.041Z,52.39
2019-06-08T13:40:08.303Z,52.07
2019-06-08T13:42:38.293Z,51.75
2019-06-08T13:45:08.500Z,52.23
2019-06-08T13:47:40.960Z,52.09
2019-06-08T13:50:11.030Z,52.85
2019-06-08T13:52:39.931Z,51.63
2019-06-08T13:55:10.254Z,52.00
2019-06-08T13:57:39.188Z,52.08
2019-06-08T14:00:09.825Z,52.21
2019-06-08T14:02:39.839Z,52.74
2019-06-08T14:05:09.313Z,52.87
2019-06-08T14:07:38.180Z,52.77
2019-06-08T14:10:09.588Z,52.52
2019-06-08T14:12:38.542Z,52.90
2019-06-08T14:15:08.626Z,53.69
2019-06-08T14:17:37.856Z,52.96
2019-06-08T14:20:08.377Z,52.77
2019-06-08T14:22:38.864Z,52.88
2019-06-08T14:25:10.559Z,52.97
2019-06-08T14:27:38.234Z,53.93
2019-06-08T14:30:08.584Z,53.84
2019-06-08T14:32:38.091Z,53.47
2019-06-08T14:35:08.733Z,52.83
2019-06-08T14:37:38.054Z,53.14
2019-06-08T14:40:08.422Z,53.81
2019-06-08T14:42:38.445Z,53.01
2019-06-08T14:45:11.082Z,53.45
2019-06-08T14:47:39.955Z,52.86
2019-06-08T14:50:09.378Z,52.98
2019-06-08T14:52:38.321Z,53.91
2019-06-08T14:55:07.957Z,54.45
2019-06-08T14:57:37.497Z,55.31
2019-06-08T15:00:09.589Z,55.93
2019-06-08T15:02:38.325Z,56.60
2019-06-08T15:05:07.858Z,57.44
2019-06-08T15:07:38.881Z,57.74
2019-06-08T15:10:09.836Z,58.78
2019-06-08T15:12:38.418Z,59.82
2019-06-08T15:15:10.945Z,59.76
2019-06-08T15:17:38.271Z,59.46
2019-06-08T15:20:08.940Z,59.24
2019-06-08T15:22:38.865Z,58.01
2019-06-08T15:25:10.955Z,57.62
2019-06-08T15:27:38.967Z,57.27
2019-06-08T15:30:08.043Z,55.85
2019-06-08T15:32:38.690Z,56.00
2019-06-08T15:35:08.099Z,55.78
2019-06-08T15:37:38.019Z,54.61
2019-06-08T15:40:08.240Z,55.12
2019-06-08T15:42:37.173Z,54.60
2019-06-08T15:45:09.078Z,54.46
2019-06-08T15:47:40.571Z,54.21
2019-06-08T15:50:08.836Z,54.72
2019-06-08T15:52:38.133Z,54.39
2019-06-08T15:55:10.929Z,55.14
2019-06-08T15:57:40.541Z,55.68
2019-06-08T16:00:10.168Z,56.91
2019-06-08T16:02:39.428Z,57.80
2019-06-08T16:05:09.105Z,58.62
2019-06-08T16:07:37.736Z,59.84
2019-06-08T16:10:10.209Z,60.33
2019-06-08T16:12:38.723Z,61.15
2019-06-08T16:15:08.431Z,61.50
2019-06-08T16:17:36.977Z,61.90
2019-06-08T16:20:07.536Z,62.43
2019-06-08T16:22:36.103Z,63.43
2019-06-08T16:25:06.353Z,63.75
2019-06-08T16:27:35.996Z,64.17
2019-06-08T16:30:09.484Z,64.53
2019-06-08T16:32:37.320Z,64.74
2019-06-08T16:35:07.138Z,65.17
2019-06-08T16:37:35.810Z,65.71
2019-06-08T16:40:07.380Z,66.20
2019-06-08T16:42:36.919Z,66.54
2019-06-08T16:45:09.149Z,67.07
2019-06-08T16:47:37.821Z,67.25
2019-06-08T16:50:07.579Z,67.45
2019-06-08T16:52:36.675Z,67.86
2019-06-08T16:55:07.670Z,67.78
2019-06-08T16:57:39.147Z,68.08
2019-06-08T17:02:39.159Z,68.46
2019-06-08T17:05:08.380Z,68.91
2019-06-08T17:07:37.706Z,69.41
2019-06-08T17:10:08.616Z,69.41
2019-06-08T17:12:37.239Z,69.52
2019-06-08T17:15:07.254Z,69.58
2019-06-08T17:17:36.507Z,70.04
2019-06-08T17:20:07.963Z,70.50
2019-06-08T17:22:36.899Z,70.56
2019-06-08T17:25:09.330Z,70.66
2019-06-08T17:27:38.977Z,71.01
2019-06-08T17:30:09.243Z,71.28
2019-06-08T17:32:38.434Z,71.50
2019-06-08T17:35:08.413Z,71.61
2019-06-08T17:37:38.213Z,71.54
2019-06-08T17:40:07.892Z,71.17
2019-06-08T17:42:37.631Z,70.29
2019-06-08T17:45:08.044Z,69.83
2019-06-08T17:47:36.590Z,69.91
2019-06-08T17:50:08.871Z,70.28
2019-06-08T17:52:38.953Z,71.10
2019-06-08T17:55:07.719Z,71.89
2019-06-08T17:57:47.400Z,72.85
2019-06-08T18:00:09.203Z,73.80
2019-06-08T18:02:41.835Z,74.31
2019-06-08T18:05:09.488Z,75.27
2019-06-08T18:07:40.215Z,75.82
2019-06-08T18:10:09.348Z,75.83
2019-06-08T18:12:43.019Z,76.16
2019-06-08T18:15:11.601Z,75.90
2019-06-08T18:17:42.210Z,75.83
2019-06-08T18:20:13.175Z,75.88
2019-06-08T18:22:44.397Z,76.31
2019-06-08T18:25:12.275Z,76.40
2019-06-08T18:27:43.735Z,76.44
2019-06-08T18:30:13.917Z,76.33
2019-06-08T18:32:44.131Z,76.40
2019-06-08T18:35:15.098Z,76.18
2019-06-08T18:37:44.137Z,76.09
2019-06-08T18:40:17.890Z,76.15
2019-06-08T18:42:48.851Z,75.61
2019-06-08T18:45:18.651Z,75.62
2019-06-08T18:47:48.409Z,75.93
2019-06-08T18:50:18.132Z,75.76
2019-06-08T18:52:49.465Z,75.63
2019-06-08T18:55:18.486Z,75.32
2019-06-08T18:57:48.997Z,74.97
2019-06-08T19:00:20.935Z,74.95
2019-06-08T19:02:54.323Z,74.82
2019-06-08T19:05:21.243Z,74.90
2019-06-08T19:07:52.532Z,74.95
2019-06-08T19:10:33.532Z,74.56
2019-06-08T19:13:02.921Z,74.51
2019-06-08T19:15:41.740Z,74.23
2019-06-08T19:18:08.282Z,73.95
2019-06-08T19:20:43.143Z,74.01
2019-06-08T19:23:09.533Z,74.00
2019-06-08T19:25:42.220Z,73.58
2019-06-08T19:28:11.595Z,73.17
2019-06-08T19:30:42.423Z,73.09
2019-06-08T19:33:10.669Z,73.55
2019-06-08T19:35:40.758Z,73.24
2019-06-08T19:38:09.878Z,72.94
2019-06-08T19:40:39.543Z,72.61
2019-06-08T19:43:08.823Z,72.21
2019-06-08T19:45:39.095Z,72.41
2019-06-08T19:48:08.397Z,72.40
2019-06-08T19:50:38.648Z,71.79
2019-06-08T19:53:07.508Z,71.99
2019-06-08T19:55:37.145Z,71.39
2019-06-08T19:58:08.105Z,71.55
2019-06-08T20:00:38.665Z,71.34
2019-06-08T20:03:07.663Z,71.11
2019-06-08T20:05:37.778Z,70.85
2019-06-08T20:08:08.109Z,70.94
2019-06-08T20:10:37.153Z,70.99
2019-06-08T20:13:07.720Z,71.02
2019-06-08T20:15:43.293Z,70.59
2019-06-08T20:18:06.481Z,70.88
2019-06-08T20:20:34.978Z,70.75
2019-06-08T20:23:03.531Z,70.61
2019-06-08T20:25:32.066Z,70.55
2019-06-08T20:28:00.605Z,70.38
2019-06-08T20:30:29.210Z,70.41
2019-06-08T20:32:57.856Z,70.24
2019-06-08T20:35:28.099Z,70.11
2019-06-08T20:37:57.832Z,70.05
2019-06-08T20:40:27.595Z,70.34
2019-06-08T20:42:57.770Z,70.46
2019-06-08T20:45:28.019Z,70.14
2019-06-08T20:47:58.463Z,69.96
2019-06-08T20:50:27.277Z,69.86
2019-06-08T20:52:57.652Z,70.11
2019-06-08T20:55:28.294Z,70.02
2019-06-08T20:57:57.620Z,70.17
2019-06-08T21:00:26.403Z,70.47
2019-06-08T21:03:01.727Z,70.41
2019-06-08T21:05:27.574Z,70.61
2019-06-08T21:07:56.413Z,70.42
2019-06-08T21:10:28.127Z,70.39
2019-06-08T21:12:58.710Z,70.54
2019-06-08T21:15:27.449Z,70.87
2019-06-08T21:17:56.398Z,71.00
2019-06-08T21:20:24.896Z,70.94
2019-06-08T21:22:54.984Z,70.99
2019-06-08T21:25:23.702Z,70.89
2019-06-08T21:27:54.058Z,70.78
2019-06-08T21:30:24.718Z,71.01
2019-06-08T21:32:55.047Z,70.97
2019-06-08T21:35:23.792Z,71.31
2019-06-08T21:37:53.360Z,71.38
2019-06-08T21:40:22.629Z,71.99
2019-06-08T21:42:52.269Z,71.72
2019-06-08T21:45:21.782Z,71.92
2019-06-08T21:47:51.723Z,72.01
2019-06-08T21:50:20.666Z,72.23
2019-06-08T21:52:51.480Z,72.27
2019-06-08T21:55:19.524Z,72.08
2019-06-08T21:57:51.968Z,72.35
2019-06-08T22:00:38.792Z,72.43
2019-06-08T22:02:51.845Z,72.92
2019-06-08T22:05:20.680Z,73.16
2019-06-08T22:07:50.066Z,73.15
2019-06-08T22:10:19.062Z,73.36
2019-06-08T22:12:48.541Z,73.88
2019-06-08T22:15:18.254Z,74.32
2019-06-08T22:17:47.740Z,74.45
2019-06-08T22:20:18.661Z,74.46
2019-06-08T22:22:48.135Z,74.32
2019-06-08T22:25:17.504Z,74.63
2019-06-08T22:27:46.802Z,74.71
2019-06-08T22:30:32.381Z,74.54
2019-06-08T22:32:47.404Z,74.56
2019-06-08T22:35:16.666Z,74.57
2019-06-08T22:37:48.063Z,74.65
2019-06-08T22:40:17.594Z,74.54
2019-06-08T22:42:48.074Z,74.44
2019-06-08T22:45:17.643Z,74.52
2019-06-08T22:47:47.838Z,74.50
2019-06-08T22:50:18.567Z,74.42
2019-06-08T22:52:47.687Z,74.12
2019-06-08T22:55:18.599Z,73.83
2019-06-08T22:57:47.900Z,73.74
2019-06-08T23:00:20.664Z,74.09
2019-06-08T23:02:48.563Z,74.19
2019-06-08T23:05:18.602Z,73.92
2019-06-08T23:07:48.826Z,74.20
2019-06-08T23:10:17.927Z,74.20
2019-06-08T23:12:47.183Z,74.18
2019-06-08T23:15:18.306Z,73.91
2019-06-08T23:17:48.003Z,73.94
2019-06-08T23:20:18.605Z,73.79
2019-06-08T23:22:47.820Z,73.72
2019-06-08T23:25:18.331Z,73.47
2019-06-08T23:27:48.410Z,73.42
2019-06-08T23:30:18.621Z,73.33
2019-06-08T23:32:48.043Z,73.32
2019-06-08T23:35:18.188Z,73.14
2019-06-08T23:37:47.868Z,73.06
2019-06-08T23:40:17.893Z,73.28
2019-06-08T23:42:47.649Z,73.16
2019-06-08T23:45:18.329Z,73.16
2019-06-08T23:47:48.062Z,73.54
2019-06-08T23:50:17.991Z,73.61
2019-06-08T23:52:47.756Z,73.53
2019-06-08T23:55:18.148Z,73.44
2019-06-08T23:57:47.268Z,73.84
